createdAt,value
2019-04-27T00:00:00.090Z,3.57
2019-04-27T00:02:57.691Z,2.73
2019-04-27T00:05:53.449Z,2.90
2019-04-27T00:08:58.320Z,3.22
2019-04-27T00:11:33.184Z,3.03
2019-04-27T00:14:04.067Z,3.40
2019-04-27T00:16:53.634Z,4.70
2019-04-27T00:19:46.283Z,2.93
2019-04-27T00:22:28.024Z,3.17
2019-04-27T00:24:59.660Z,3.90
2019-04-27T00:27:30.051Z,3.10
2019-04-27T00:30:00.450Z,3.00
2019-04-27T00:32:31.110Z,3.63
2019-04-27T00:35:03.533Z,3.70
2019-04-27T00:38:03.156Z,3.27
2019-04-27T00:40:43.625Z,3.47
2019-04-27T00:43:14.149Z,4.23
2019-04-27T00:45:44.525Z,3.70
2019-04-27T00:48:14.942Z,3.70
2019-04-27T00:50:46.478Z,2.87
2019-04-27T00:53:16.895Z,3.47
2019-04-27T00:56:05.218Z,3.33
2019-04-27T00:58:55.775Z,3.13
2019-04-27T01:01:33.299Z,2.83
2019-04-27T01:04:07.949Z,3.27
2019-04-27T01:06:38.265Z,3.00
2019-04-27T01:09:13.426Z,3.40
2019-04-27T01:11:43.781Z,3.43
2019-04-27T01:14:14.115Z,3.70
2019-04-27T01:16:44.432Z,4.13
2019-04-27T01:19:14.853Z,3.40
2019-04-27T01:21:45.170Z,3.07
2019-04-27T01:24:15.529Z,2.63
2019-04-27T01:27:04.461Z,2.47
2019-04-27T01:29:35.268Z,2.10
2019-04-27T01:32:06.674Z,2.47
2019-04-27T01:34:37.054Z,2.57
2019-04-27T01:37:07.345Z,2.90
2019-04-27T01:39:38.801Z,2.07
2019-04-27T01:42:10.620Z,2.20
2019-04-27T01:44:41.015Z,2.07
2019-04-27T01:47:11.317Z,2.10
2019-04-27T01:49:41.643Z,3.10
2019-04-27T01:52:12.391Z,2.80
2019-04-27T01:54:42.727Z,2.87
2019-04-27T01:57:13.884Z,2.00
2019-04-27T01:59:44.216Z,1.90
2019-04-27T02:02:29.195Z,2.97
2019-04-27T02:05:36.377Z,2.63
2019-04-27T02:08:06.908Z,2.10
2019-04-27T02:10:37.234Z,2.10
2019-04-27T02:13:08.961Z,2.83
2019-04-27T02:15:39.638Z,2.30
2019-04-27T02:18:10.093Z,3.43
2019-04-27T02:20:40.457Z,1.90
2019-04-27T02:23:10.761Z,2.13
2019-04-27T02:25:42.054Z,2.10
2019-04-27T02:28:29.568Z,2.17
2019-04-27T02:31:19.780Z,2.20
2019-04-27T02:33:59.405Z,1.80
2019-04-27T02:36:30.538Z,2.03
2019-04-27T02:39:01.048Z,1.90
2019-04-27T02:41:33.008Z,2.83
2019-04-27T02:44:19.833Z,1.90
2019-04-27T02:46:50.226Z,3.17
2019-04-27T02:49:20.737Z,2.53
2019-04-27T02:52:09.483Z,2.53
2019-04-27T02:54:40.204Z,3.93
2019-04-27T02:57:10.568Z,2.03
2019-04-27T02:59:40.995Z,2.47
2019-04-27T03:02:20.453Z,2.13
2019-04-27T03:04:50.777Z,2.17
2019-04-27T03:07:21.117Z,2.37
2019-04-27T03:09:51.553Z,2.73
2019-04-27T03:12:25.618Z,2.00
2019-04-27T03:15:22.889Z,2.20
2019-04-27T03:18:09.820Z,2.90
2019-04-27T03:20:50.358Z,2.63
2019-04-27T03:23:20.811Z,2.17
2019-04-27T03:26:19.592Z,2.10
2019-04-27T03:28:50.446Z,2.20
2019-04-27T03:31:21.742Z,2.97
2019-04-27T03:33:58.643Z,5.17
2019-04-27T03:36:24.611Z,2.10
2019-04-27T03:38:54.961Z,2.50
2019-04-27T03:41:25.347Z,2.60
2019-04-27T03:43:55.702Z,2.40
2019-04-27T03:46:26.098Z,2.60
2019-04-27T03:48:56.376Z,2.50
2019-04-27T03:51:40.301Z,3.20
2019-04-27T03:54:25.846Z,2.40
2019-04-27T03:57:03.342Z,2.77
2019-04-27T03:59:52.601Z,2.40
2019-04-27T04:02:22.927Z,2.17
2019-04-27T04:04:53.235Z,3.90
2019-04-27T04:07:25.126Z,2.27
2019-04-27T04:09:55.426Z,3.00
2019-04-27T04:12:56.067Z,2.57
2019-04-27T04:15:49.794Z,2.20
2019-04-27T04:18:19.707Z,2.50
2019-04-27T04:20:50.566Z,2.37
2019-04-27T04:23:21.043Z,2.90
2019-04-27T04:25:52.947Z,2.87
2019-04-27T04:28:23.262Z,2.37
2019-04-27T04:30:53.558Z,2.37
2019-04-27T04:33:25.059Z,2.37
2019-04-27T04:35:55.367Z,3.50
2019-04-27T04:38:25.723Z,2.20
2019-04-27T04:41:01.819Z,2.20
2019-04-27T04:43:40.110Z,2.50
2019-04-27T04:46:39.925Z,2.43
2019-04-27T04:49:10.447Z,2.20
2019-04-27T04:51:40.744Z,2.40
2019-04-27T04:54:11.077Z,2.07
2019-04-27T04:56:41.386Z,2.10
2019-04-27T04:59:11.716Z,2.90
2019-04-27T05:01:42.137Z,1.93
2019-04-27T05:04:12.474Z,3.37
2019-04-27T05:06:42.790Z,2.13
2019-04-27T05:09:13.140Z,2.20
2019-04-27T05:11:43.446Z,2.43
2019-04-27T05:14:13.763Z,3.30
2019-04-27T05:16:44.316Z,2.33
2019-04-27T05:19:14.650Z,2.10
2019-04-27T05:21:45.928Z,1.90
2019-04-27T05:24:16.258Z,2.37
2019-04-27T05:26:46.555Z,2.00
2019-04-27T05:29:16.869Z,2.13
2019-04-27T05:31:48.806Z,2.17
2019-04-27T05:34:19.725Z,2.00
2019-04-27T05:36:53.834Z,2.20
2019-04-27T05:39:25.116Z,1.97
2019-04-27T05:41:56.086Z,2.03
2019-04-27T05:44:49.982Z,2.03
2019-04-27T05:47:48.390Z,2.17
2019-04-27T05:50:21.978Z,3.70
2019-04-27T05:52:50.571Z,2.40
2019-04-27T05:55:20.895Z,3.27
2019-04-27T05:57:51.239Z,2.57
2019-04-27T06:00:22.071Z,2.70
2019-04-27T06:02:52.375Z,3.03
2019-04-27T06:05:23.036Z,2.90
2019-04-27T06:07:53.605Z,3.33
2019-04-27T06:10:23.939Z,3.50
2019-04-27T06:12:54.234Z,2.73
2019-04-27T06:15:24.740Z,2.77
2019-04-27T06:17:55.026Z,3.93
2019-04-27T06:20:25.367Z,3.00
2019-04-27T06:22:55.671Z,2.67
2019-04-27T06:25:26.005Z,2.97
2019-04-27T06:27:56.308Z,3.07
2019-04-27T06:30:26.724Z,4.30
2019-04-27T06:32:57.029Z,4.93
2019-04-27T06:35:28.828Z,4.83
2019-04-27T06:37:59.244Z,6.70
2019-04-27T06:40:29.588Z,5.93
2019-04-27T06:42:59.900Z,6.53
2019-04-27T06:45:30.223Z,5.43
2019-04-27T06:48:00.531Z,6.60
2019-04-27T06:50:30.870Z,4.27
2019-04-27T06:53:01.232Z,4.93
2019-04-27T06:55:31.567Z,5.57
2019-04-27T06:58:01.867Z,5.33
2019-04-27T07:00:32.451Z,4.90
2019-04-27T07:03:02.761Z,8.77
2019-04-27T07:05:33.078Z,4.97
2019-04-27T07:08:04.643Z,5.77
2019-04-27T07:10:34.993Z,6.30
2019-04-27T07:13:05.363Z,6.47
2019-04-27T07:15:35.749Z,6.43
2019-04-27T07:18:06.179Z,5.63
2019-04-27T07:20:36.514Z,5.97
2019-04-27T07:23:06.816Z,5.80
2019-04-27T07:25:38.781Z,7.10
2019-04-27T07:28:09.303Z,5.10
2019-04-27T07:30:39.610Z,5.53
2019-04-27T07:33:09.950Z,6.07
2019-04-27T07:35:40.777Z,5.27
2019-04-27T07:38:11.144Z,6.03
2019-04-27T07:40:42.111Z,6.03
2019-04-27T07:43:23.248Z,5.60
2019-04-27T07:45:53.554Z,5.40
2019-04-27T07:48:23.914Z,5.70
2019-04-27T07:50:54.215Z,5.70
2019-04-27T07:53:24.633Z,6.07
2019-04-27T07:55:54.921Z,4.90
2019-04-27T07:58:25.268Z,5.00
2019-04-27T08:00:55.571Z,4.93
2019-04-27T08:03:26.025Z,4.90
2019-04-27T08:05:56.343Z,4.50
2019-04-27T08:08:28.498Z,3.73
2019-04-27T08:10:59.495Z,3.63
2019-04-27T08:13:30.031Z,3.80
2019-04-27T08:16:00.343Z,4.87
2019-04-27T08:18:30.679Z,3.97
2019-04-27T08:21:00.986Z,3.70
2019-04-27T08:23:31.308Z,3.50
2019-04-27T08:26:02.303Z,4.43
2019-04-27T08:28:50.426Z,4.37
2019-04-27T08:31:38.668Z,4.03
2019-04-27T08:34:29.538Z,5.43
2019-04-27T08:37:00.777Z,4.73
2019-04-27T08:39:31.209Z,4.97
2019-04-27T08:42:01.531Z,5.03
2019-04-27T08:44:32.083Z,4.47
2019-04-27T08:47:02.388Z,4.57
2019-04-27T08:49:33.048Z,4.20
2019-04-27T08:52:03.487Z,4.23
2019-04-27T08:54:33.811Z,5.43
2019-04-27T08:57:05.351Z,8.13
2019-04-27T08:59:35.853Z,5.70
2019-04-27T09:02:06.182Z,4.93
2019-04-27T09:04:36.900Z,5.07
2019-04-27T09:07:24.894Z,6.40
2019-04-27T09:09:59.651Z,6.20
2019-04-27T09:12:53.456Z,6.07
2019-04-27T09:15:31.724Z,6.83
2019-04-27T09:18:02.180Z,7.43
2019-04-27T09:20:36.124Z,7.20
2019-04-27T09:23:06.739Z,6.47
2019-04-27T09:25:37.146Z,7.20
2019-04-27T09:28:08.736Z,5.83
2019-04-27T09:30:39.498Z,5.47
2019-04-27T09:33:09.859Z,7.43
2019-04-27T09:35:40.185Z,9.50
2019-04-27T09:38:10.488Z,6.50
2019-04-27T09:40:40.827Z,6.27
2019-04-27T09:43:11.228Z,6.80
2019-04-27T09:45:41.746Z,4.40
2019-04-27T09:48:12.106Z,7.67
2019-04-27T09:50:42.468Z,6.03
2019-04-27T09:53:12.757Z,7.40
2019-04-27T09:55:43.099Z,6.50
2019-04-27T09:58:13.395Z,7.77
2019-04-27T10:00:43.718Z,5.93
2019-04-27T10:03:14.075Z,6.50
2019-04-27T10:05:45.945Z,6.50
2019-04-27T10:08:16.989Z,6.80
2019-04-27T10:10:47.981Z,6.87
2019-04-27T10:13:18.535Z,7.00
2019-04-27T10:15:48.879Z,8.43
2019-04-27T10:18:19.178Z,6.27
2019-04-27T10:20:58.752Z,6.93
2019-04-27T10:23:21.406Z,8.17
2019-04-27T10:25:51.728Z,9.03
2019-04-27T10:28:22.023Z,7.97
2019-04-27T10:30:52.379Z,8.20
2019-04-27T10:33:23.386Z,6.60
2019-04-27T10:35:53.887Z,7.70
2019-04-27T10:38:25.907Z,8.23
2019-04-27T10:40:57.331Z,4.80
2019-04-27T10:43:27.643Z,5.87
2019-04-27T10:45:57.987Z,4.80
2019-04-27T10:48:28.303Z,5.30
2019-04-27T10:50:58.626Z,4.57
2019-04-27T10:53:28.957Z,4.93
2019-04-27T10:55:59.278Z,6.57
2019-04-27T10:58:29.586Z,8.43
2019-04-27T11:01:01.610Z,7.73
2019-04-27T11:03:50.009Z,7.07
2019-04-27T11:06:40.255Z,5.67
2019-04-27T11:09:12.738Z,7.33
2019-04-27T11:11:43.144Z,8.43
2019-04-27T11:14:13.489Z,6.10
2019-04-27T11:16:45.786Z,5.03
2019-04-27T11:19:16.856Z,7.27
2019-04-27T11:21:47.437Z,6.87
2019-04-27T11:24:17.734Z,4.17
2019-04-27T11:26:48.071Z,7.30
2019-04-27T11:29:18.391Z,6.37
2019-04-27T11:31:48.766Z,6.60
2019-04-27T11:34:19.942Z,6.63
2019-04-27T11:36:59.172Z,6.30
2019-04-27T11:39:29.505Z,8.03
2019-04-27T11:41:59.979Z,7.77
2019-04-27T11:44:31.375Z,6.30
2019-04-27T11:47:02.541Z,8.17
2019-04-27T11:49:32.856Z,5.93
2019-04-27T11:52:03.199Z,4.00
2019-04-27T11:54:33.496Z,3.77
2019-04-27T11:57:04.611Z,4.97
2019-04-27T11:59:34.912Z,4.97
2019-04-27T12:02:05.333Z,4.10
2019-04-27T12:04:36.428Z,4.33
2019-04-27T12:07:06.914Z,5.33
2019-04-27T12:09:37.193Z,2.20
2019-04-27T12:12:15.024Z,2.70
2019-04-27T12:14:39.502Z,1.63
2019-04-27T12:17:09.826Z,3.10
2019-04-27T12:19:40.116Z,2.23
2019-04-27T12:22:10.447Z,2.20
2019-04-27T12:24:40.753Z,1.80
2019-04-27T12:27:39.471Z,2.67
2019-04-27T12:30:36.996Z,2.80
2019-04-27T12:33:07.463Z,1.40
2019-04-27T12:35:37.855Z,2.23
2019-04-27T12:38:08.183Z,1.70
2019-04-27T12:40:38.484Z,1.90
2019-04-27T12:43:08.810Z,2.87
2019-04-27T12:45:41.992Z,3.30
2019-04-27T12:48:11.088Z,2.03
2019-04-27T12:50:41.403Z,1.43
2019-04-27T12:53:16.861Z,1.97
2019-04-27T12:56:06.549Z,6.10
2019-04-27T12:58:52.969Z,3.23
2019-04-27T13:01:23.718Z,14.57
2019-04-27T13:03:57.117Z,4.37
2019-04-27T13:06:26.012Z,2.57
2019-04-27T13:08:56.416Z,8.10
2019-04-27T13:11:26.830Z,2.53
2019-04-27T13:13:57.746Z,0.90
2019-04-27T13:16:30.429Z,0.80
2019-04-27T13:19:00.100Z,0.70
2019-04-27T13:21:30.494Z,0.50
2019-04-27T13:24:04.530Z,0.90
2019-04-27T13:26:32.774Z,2.30
2019-04-27T13:29:03.152Z,0.80
2019-04-27T13:31:33.463Z,1.00
2019-04-27T13:34:05.644Z,2.07
2019-04-27T13:36:36.767Z,1.33
2019-04-27T13:39:07.981Z,1.00
2019-04-27T13:41:39.160Z,1.00
2019-04-27T13:44:09.511Z,4.37
2019-04-27T13:46:57.770Z,1.53
2019-04-27T13:49:46.101Z,2.27
2019-04-27T13:52:29.929Z,5.33
2019-04-27T13:54:59.908Z,4.10
2019-04-27T13:57:30.282Z,3.33
2019-04-27T14:00:01.238Z,3.90
2019-04-27T14:02:32.557Z,1.30
2019-04-27T14:05:04.049Z,1.80
2019-04-27T14:07:34.394Z,1.00
2019-04-27T14:10:05.585Z,1.57
2019-04-27T14:12:35.982Z,1.30
2019-04-27T14:15:06.475Z,1.60
2019-04-27T14:17:36.875Z,1.30
2019-04-27T14:20:08.007Z,1.20
2019-04-27T14:22:39.325Z,2.97
2019-04-27T14:25:10.706Z,2.30
2019-04-27T14:27:41.785Z,2.13
2019-04-27T14:30:14.159Z,2.00
2019-04-27T14:32:44.509Z,2.67
2019-04-27T14:35:14.813Z,2.67
2019-04-27T14:37:47.508Z,3.37
2019-04-27T14:40:18.566Z,3.27
2019-04-27T14:42:50.540Z,5.40
2019-04-27T14:45:21.092Z,3.37
2019-04-27T14:47:51.643Z,5.47
2019-04-27T14:50:22.060Z,6.63
2019-04-27T14:52:52.455Z,5.70
2019-04-27T14:55:22.762Z,8.30
2019-04-27T14:57:53.074Z,3.97
2019-04-27T15:00:23.496Z,7.63
2019-04-27T15:02:53.802Z,7.10
2019-04-27T15:05:24.126Z,5.50
2019-04-27T15:07:54.670Z,5.77
2019-04-27T15:10:27.036Z,4.67
2019-04-27T15:12:57.096Z,6.27
2019-04-27T15:15:28.398Z,6.83
2019-04-27T15:18:04.351Z,4.80
2019-04-27T15:20:39.714Z,4.70
2019-04-27T15:23:10.145Z,6.20
2019-04-27T15:25:45.733Z,5.47
2019-04-27T15:28:15.629Z,4.83
2019-04-27T15:31:09.887Z,4.37
2019-04-27T15:33:58.927Z,7.00
2019-04-27T15:36:48.338Z,5.50
2019-04-27T15:39:26.944Z,3.20
2019-04-27T15:42:02.024Z,1.97
2019-04-27T15:44:32.560Z,4.10
2019-04-27T15:47:03.655Z,6.00
2019-04-27T15:49:34.840Z,4.43
2019-04-27T15:52:05.270Z,4.63
2019-04-27T15:54:35.696Z,2.60
2019-04-27T15:57:12.376Z,3.03
2019-04-27T15:59:40.959Z,5.20
2019-04-27T16:02:15.290Z,3.03
2019-04-27T16:04:44.439Z,7.87
2019-04-27T16:07:19.757Z,3.10
2019-04-27T16:09:48.666Z,2.67
2019-04-27T16:12:18.887Z,2.80
2019-04-27T16:14:49.274Z,2.10
2019-04-27T16:17:19.566Z,3.57
2019-04-27T16:19:50.408Z,3.20
2019-04-27T16:22:22.692Z,3.17
2019-04-27T16:24:54.635Z,2.27
2019-04-27T16:27:25.780Z,2.80
2019-04-27T16:29:57.879Z,2.07
2019-04-27T16:32:28.998Z,3.03
2019-04-27T16:34:59.359Z,3.97
2019-04-27T16:37:44.658Z,2.20
2019-04-27T16:40:17.669Z,3.70
2019-04-27T16:42:50.710Z,2.47
2019-04-27T16:45:22.752Z,2.80
2019-04-27T16:47:52.108Z,3.83
2019-04-27T16:50:25.471Z,2.27
2019-04-27T16:52:59.185Z,2.53
2019-04-27T16:55:33.635Z,2.37
2019-04-27T16:57:59.988Z,2.03
2019-04-27T17:00:30.568Z,3.67
2019-04-27T17:03:02.922Z,4.10
2019-04-27T17:05:34.668Z,2.10
2019-04-27T17:08:04.852Z,3.10
2019-04-27T17:10:35.217Z,2.97
2019-04-27T17:13:06.098Z,3.47
2019-04-27T17:15:55.581Z,2.10
2019-04-27T17:18:49.047Z,3.23
2019-04-27T17:21:23.217Z,2.00
2019-04-27T17:23:52.465Z,3.73
2019-04-27T17:26:24.103Z,2.27
2019-04-27T17:29:00.924Z,3.33
2019-04-27T17:31:32.955Z,2.30
2019-04-27T17:34:03.268Z,2.77
2019-04-27T17:36:33.606Z,3.20
2019-04-27T17:39:15.277Z,2.77
2019-04-27T17:41:49.231Z,3.50
2019-04-27T17:44:22.654Z,3.27
2019-04-27T17:46:51.190Z,2.17
2019-04-27T17:49:22.497Z,2.87
2019-04-27T17:51:52.960Z,2.50
2019-04-27T17:54:23.376Z,2.90
2019-04-27T17:56:54.127Z,4.17
2019-04-27T17:59:24.694Z,2.17
2019-04-27T18:02:00.883Z,2.73
2019-04-27T18:04:28.693Z,3.90
2019-04-27T18:07:02.097Z,4.63
2019-04-27T18:09:33.535Z,4.63
2019-04-27T18:12:03.313Z,3.40
2019-04-27T18:14:39.362Z,3.53
2019-04-27T18:17:08.525Z,4.03
2019-04-27T18:19:44.225Z,2.37
2019-04-27T18:22:15.872Z,2.90
2019-04-27T18:24:55.542Z,3.47
2019-04-27T18:27:52.091Z,5.10
2019-04-27T18:30:28.064Z,4.37
2019-04-27T18:33:01.980Z,17.40
2019-04-27T18:35:30.931Z,3.20
2019-04-27T18:38:01.992Z,3.20
2019-04-27T18:40:33.583Z,4.00
2019-04-27T18:43:06.476Z,6.00
2019-04-27T18:45:44.791Z,3.40
2019-04-27T18:48:14.917Z,2.80
2019-04-27T18:50:53.227Z,2.97
2019-04-27T18:53:26.650Z,3.57
2019-04-27T18:56:04.370Z,3.67
2019-04-27T18:58:29.061Z,3.23
2019-04-27T19:00:59.695Z,5.47
2019-04-27T19:03:31.713Z,7.57
2019-04-27T19:06:02.055Z,5.17
2019-04-27T19:08:33.682Z,10.97
2019-04-27T19:11:05.014Z,5.50
2019-04-27T19:13:35.635Z,3.37
2019-04-27T19:16:05.996Z,2.47
2019-04-27T19:18:37.819Z,5.13
2019-04-27T19:21:08.838Z,3.13
2019-04-27T19:23:40.984Z,4.50
2019-04-27T19:26:33.280Z,3.67
2019-04-27T19:29:29.231Z,4.83
2019-04-27T19:32:01.504Z,4.97
2019-04-27T19:34:32.833Z,4.53
2019-04-27T19:37:04.345Z,5.37
2019-04-27T19:39:34.775Z,5.47
2019-04-27T19:42:05.339Z,4.80
2019-04-27T19:44:35.880Z,5.57
2019-04-27T19:47:06.214Z,8.67
2019-04-27T19:49:38.703Z,5.13
2019-04-27T19:52:09.085Z,6.10
2019-04-27T19:54:39.865Z,8.40
2019-04-27T19:57:10.363Z,7.97
2019-04-27T19:59:46.614Z,5.93
2019-04-27T20:02:20.329Z,6.10
2019-04-27T20:04:57.758Z,7.20
2019-04-27T20:07:28.591Z,4.63
2019-04-27T20:10:02.508Z,7.67
2019-04-27T20:12:34.262Z,8.20
2019-04-27T20:15:05.174Z,6.20
2019-04-27T20:17:35.519Z,5.83
2019-04-27T20:20:06.261Z,6.50
2019-04-27T20:22:36.725Z,6.43
2019-04-27T20:25:07.325Z,5.83
2019-04-27T20:27:45.932Z,4.93
2019-04-27T20:30:11.365Z,6.53
2019-04-27T20:32:42.685Z,6.17
2019-04-27T20:35:13.203Z,4.33
2019-04-27T20:37:43.581Z,3.43
2019-04-27T20:40:14.037Z,4.77
2019-04-27T20:42:44.448Z,7.70
2019-04-27T20:45:15.213Z,7.33
2019-04-27T20:47:45.639Z,4.97
2019-04-27T20:50:16.301Z,5.10
2019-04-27T20:52:54.564Z,5.90
2019-04-27T20:55:25.627Z,5.60
2019-04-27T20:58:01.676Z,7.20
2019-04-27T21:00:28.112Z,5.43
2019-04-27T21:03:32.500Z,6.17
2019-04-27T21:06:29.446Z,9.07
2019-04-27T21:09:00.847Z,4.27
2019-04-27T21:11:45.637Z,4.73
2019-04-27T21:14:16.070Z,6.93
2019-04-27T21:16:58.097Z,8.53
2019-04-27T21:19:28.498Z,6.47
2019-04-27T21:21:58.831Z,8.07
2019-04-27T21:24:30.773Z,7.43
2019-04-27T21:27:01.101Z,4.90
2019-04-27T21:29:31.398Z,7.43
2019-04-27T21:32:01.859Z,5.93
2019-04-27T21:34:33.230Z,7.43
2019-04-27T21:37:03.551Z,5.93
2019-04-27T21:39:33.845Z,4.33
2019-04-27T21:42:04.388Z,6.53
2019-04-27T21:44:34.697Z,5.30
2019-04-27T21:47:05.047Z,6.80
2019-04-27T21:49:35.351Z,9.00
2019-04-27T21:52:15.463Z,5.17
2019-04-27T21:54:46.786Z,3.27
2019-04-27T21:57:17.137Z,6.33
2019-04-27T21:59:47.514Z,3.57
2019-04-27T22:02:19.760Z,4.67
2019-04-27T22:04:51.854Z,4.00
2019-04-27T22:07:22.265Z,3.50
2019-04-27T22:09:52.646Z,5.33
2019-04-27T22:12:23.071Z,2.40
2019-04-27T22:14:53.477Z,5.47
2019-04-27T22:17:23.802Z,3.27
2019-04-27T22:19:55.750Z,3.83
2019-04-27T22:22:32.451Z,3.73
2019-04-27T22:25:08.212Z,3.53
2019-04-27T22:27:38.650Z,3.17
2019-04-27T22:30:11.021Z,3.30
2019-04-27T22:32:41.522Z,4.93
2019-04-27T22:35:12.120Z,2.73
2019-04-27T22:37:42.443Z,4.13
2019-04-27T22:40:46.764Z,3.20
2019-04-27T22:43:34.906Z,3.40
2019-04-27T22:46:06.554Z,4.20
2019-04-27T22:48:37.349Z,3.13
2019-04-27T22:51:07.710Z,4.30
2019-04-27T22:53:38.402Z,3.93
2019-04-27T22:56:16.083Z,7.33
2019-04-27T22:59:00.469Z,6.77
2019-04-27T23:01:37.073Z,8.70
2019-04-27T23:04:08.248Z,10.10
2019-04-27T23:06:38.585Z,8.67
2019-04-27T23:09:09.003Z,5.83
2019-04-27T23:11:41.485Z,5.67
2019-04-27T23:14:11.912Z,3.23
2019-04-27T23:16:44.277Z,6.07
2019-04-27T23:19:14.640Z,5.73
2019-04-27T23:21:45.002Z,6.30
2019-04-27T23:24:15.304Z,4.10
2019-04-27T23:26:45.652Z,4.93
2019-04-27T23:29:16.150Z,3.73
2019-04-27T23:31:53.618Z,5.80
2019-04-27T23:34:23.912Z,4.93
2019-04-27T23:36:54.250Z,2.97
2019-04-27T23:39:24.654Z,3.93
2019-04-27T23:41:55.097Z,5.50
2019-04-27T23:44:25.411Z,4.87
2019-04-27T23:46:55.740Z,3.40
2019-04-27T23:49:26.064Z,4.20
2019-04-27T23:52:11.467Z,4.17
2019-04-27T23:54:42.911Z,4.07
2019-04-27T23:57:13.326Z,3.70
2019-04-27T23:59:43.622Z,4.60
